createdAt,value
2019-01-23T00:02:21.899Z,93816.53
2019-01-23T00:04:49.342Z,93807.56
2019-01-23T00:07:16.774Z,93807.12
2019-01-23T00:09:44.183Z,93808.98
2019-01-23T00:12:11.603Z,93804.61
2019-01-23T00:14:39.579Z,93808.62
2019-01-23T00:17:06.947Z,93804.66
2019-01-23T00:19:34.354Z,93799.69
2019-01-23T00:22:01.799Z,93799.33
2019-01-23T00:24:29.200Z,93793.98
2019-01-23T00:26:56.600Z,93786.72
2019-01-23T00:29:26.979Z,93781.14
2019-01-23T00:31:54.351Z,93786.78
2019-01-23T00:34:21.753Z,93785.27
2019-01-23T00:36:49.839Z,93784.14
2019-01-23T00:39:17.262Z,93785.50
2019-01-23T00:41:44.658Z,93783.02
2019-01-23T00:44:12.090Z,93781.73
2019-01-23T00:46:39.615Z,93782.59
2019-01-23T00:49:07.034Z,93783.10
2019-01-23T00:51:34.497Z,93784.99
2019-01-23T00:54:02.221Z,93784.27
2019-01-23T00:56:29.623Z,93785.55
2019-01-23T00:58:57.099Z,93782.94
2019-01-23T01:01:24.499Z,93779.79
2019-01-23T01:03:51.880Z,93775.69
2019-01-23T01:06:19.342Z,93772.20
2019-01-23T01:08:46.739Z,93771.98
2019-01-23T01:11:14.166Z,93766.95
2019-01-23T01:13:41.651Z,93757.30
2019-01-23T01:16:09.094Z,93761.69
2019-01-23T01:18:36.559Z,93754.64
2019-01-23T01:21:04.099Z,93755.27
2019-01-23T01:23:31.516Z,93754.95
2019-01-23T01:25:58.915Z,93754.82
2019-01-23T01:28:26.360Z,93746.13
2019-01-23T01:30:54.101Z,93747.58
2019-01-23T01:33:21.504Z,93758.35
2019-01-23T01:35:48.933Z,93749.02
2019-01-23T01:38:16.319Z,93745.51
2019-01-23T01:40:44.118Z,93750.68
2019-01-23T01:43:11.560Z,93741.14
2019-01-23T01:45:38.963Z,93731.36
2019-01-23T01:48:06.370Z,93731.50
2019-01-23T01:50:33.839Z,93728.23
2019-01-23T01:53:01.231Z,93724.09
2019-01-23T01:55:28.622Z,93725.26
2019-01-23T01:57:59.479Z,93727.30
2019-01-23T02:00:27.019Z,93718.13
2019-01-23T02:02:54.451Z,93717.30
2019-01-23T02:05:21.912Z,93710.86
2019-01-23T02:07:49.419Z,93708.84
2019-01-23T02:10:18.967Z,93712.66
2019-01-23T02:12:46.540Z,93700.41
2019-01-23T02:15:14.358Z,93699.69
2019-01-23T02:17:41.954Z,93695.00
2019-01-23T02:20:15.497Z,93692.13
2019-01-23T02:22:42.879Z,93689.33
2019-01-23T02:25:10.473Z,93687.38
2019-01-23T02:27:38.139Z,93695.79
2019-01-23T02:30:07.002Z,93690.23
2019-01-23T02:32:34.432Z,93684.38
2019-01-23T02:35:01.921Z,93685.30
2019-01-23T02:37:29.360Z,93683.34
2019-01-23T02:39:56.782Z,93675.84
2019-01-23T02:42:24.264Z,93676.58
2019-01-23T02:44:51.677Z,93672.22
2019-01-23T02:47:19.114Z,93675.42
2019-01-23T02:49:46.600Z,93669.53
2019-01-23T02:52:13.993Z,93665.91
2019-01-23T02:54:41.399Z,93669.55
2019-01-23T02:57:08.832Z,93666.47
2019-01-23T02:59:36.469Z,93662.12
2019-01-23T03:02:04.520Z,93662.78
2019-01-23T03:04:31.947Z,93659.94
2019-01-23T03:06:59.339Z,93658.19
2019-01-23T03:09:26.740Z,93653.02
2019-01-23T03:11:54.195Z,93651.50
2019-01-23T03:14:21.641Z,93648.81
2019-01-23T03:19:24.155Z,93640.27
2019-01-23T03:21:51.563Z,93639.11
2019-01-23T03:24:19.495Z,93641.27
2019-01-23T03:26:47.092Z,93636.34
2019-01-23T03:29:14.829Z,93631.48
2019-01-23T03:31:42.436Z,93628.01
2019-01-23T03:34:10.819Z,93627.57
2019-01-23T03:36:38.227Z,93628.97
2019-01-23T03:39:06.856Z,93628.83
2019-01-23T03:41:34.252Z,93622.25
2019-01-23T03:44:01.592Z,93620.50
2019-01-23T03:46:28.992Z,93618.64
2019-01-23T03:48:56.379Z,93614.33
2019-01-23T03:51:23.753Z,93616.77
2019-01-23T03:53:51.178Z,93616.47
2019-01-23T03:56:18.598Z,93616.06
2019-01-23T03:58:46.093Z,93608.89
2019-01-23T04:01:13.456Z,93612.78
2019-01-23T04:03:40.843Z,93608.02
2019-01-23T04:06:08.217Z,93600.80
2019-01-23T04:08:35.616Z,93595.88
2019-01-23T04:11:02.977Z,93589.36
2019-01-23T04:13:30.376Z,93592.52
2019-01-23T04:15:57.816Z,93581.30
2019-01-23T04:18:25.234Z,93574.67
2019-01-23T04:20:52.601Z,93575.28
2019-01-23T04:23:19.995Z,93583.86
2019-01-23T04:25:48.573Z,93578.42
2019-01-23T04:28:16.022Z,93576.13
2019-01-23T04:30:43.462Z,93573.83
2019-01-23T04:33:10.847Z,93572.23
2019-01-23T04:35:38.226Z,93570.52
2019-01-23T04:38:05.656Z,93571.49
2019-01-23T04:40:33.036Z,93567.86
2019-01-23T04:43:00.459Z,93570.14
2019-01-23T04:45:27.805Z,93569.38
2019-01-23T04:47:55.176Z,93576.23
2019-01-23T04:50:22.547Z,93572.06
2019-01-23T04:53:04.663Z,93560.69
2019-01-23T04:55:32.833Z,93564.22
2019-01-23T04:58:00.241Z,93571.87
2019-01-23T05:00:29.412Z,93566.75
2019-01-23T05:02:57.656Z,93565.19
2019-01-23T05:05:25.016Z,93571.82
2019-01-23T05:07:52.414Z,93560.14
2019-01-23T05:10:19.750Z,93558.63
2019-01-23T05:12:47.176Z,93552.73
2019-01-23T05:15:14.549Z,93548.33
2019-01-23T05:17:42.258Z,93548.77
2019-01-23T05:20:10.431Z,93541.29
2019-01-23T05:22:37.843Z,93537.04
2019-01-23T05:25:05.857Z,93543.87
2019-01-23T05:27:33.213Z,93542.42
2019-01-23T05:30:00.615Z,93544.06
2019-01-23T05:32:27.993Z,93538.59
2019-01-23T05:34:55.364Z,93543.58
2019-01-23T05:37:22.738Z,93533.13
2019-01-23T05:39:50.114Z,93534.40
2019-01-23T05:42:17.516Z,93531.03
2019-01-23T05:44:44.898Z,93532.03
2019-01-23T05:47:12.288Z,93523.38
2019-01-23T05:49:39.695Z,93525.29
2019-01-23T05:52:07.134Z,93525.30
2019-01-23T05:54:34.532Z,93527.00
2019-01-23T05:57:01.918Z,93519.11
2019-01-23T05:59:29.283Z,93517.02
2019-01-23T06:01:56.700Z,93510.68
2019-01-23T06:04:24.035Z,93513.16
2019-01-23T06:06:51.375Z,93507.19
2019-01-23T06:09:18.764Z,93510.07
2019-01-23T06:11:46.166Z,93511.92
2019-01-23T06:14:13.518Z,93508.35
2019-01-23T06:16:40.969Z,93509.66
2019-01-23T06:19:08.436Z,93499.16
2019-01-23T06:21:35.848Z,93505.35
2019-01-23T06:24:03.294Z,93498.97
2019-01-23T06:26:30.655Z,93500.14
2019-01-23T06:28:58.220Z,93501.70
2019-01-23T06:31:26.024Z,93504.09
2019-01-23T06:33:53.640Z,93503.41
2019-01-23T06:36:21.220Z,93504.12
2019-01-23T06:38:48.561Z,93504.57
2019-01-23T06:41:15.993Z,93497.77
2019-01-23T06:43:47.638Z,93499.73
2019-01-23T06:46:14.995Z,93506.58
2019-01-23T06:48:42.416Z,93499.83
2019-01-23T06:51:09.815Z,93503.86
2019-01-23T06:53:37.247Z,93507.77
2019-01-23T06:56:04.632Z,93499.37
2019-01-23T06:58:32.026Z,93499.05
2019-01-23T07:01:00.063Z,93499.05
2019-01-23T07:03:27.612Z,93496.27
2019-01-23T07:05:54.997Z,93503.55
2019-01-23T07:08:22.352Z,93492.67
2019-01-23T07:10:49.719Z,93485.64
2019-01-23T07:13:17.148Z,93485.57
2019-01-23T07:15:44.544Z,93485.13
2019-01-23T07:18:11.955Z,93480.55
2019-01-23T07:20:39.333Z,93482.84
2019-01-23T07:23:06.664Z,93478.39
2019-01-23T07:25:34.115Z,93482.36
2019-01-23T07:28:01.494Z,93479.51
2019-01-23T07:30:38.054Z,93479.14
2019-01-23T07:33:05.533Z,93481.64
2019-01-23T07:35:32.902Z,93473.76
2019-01-23T07:38:00.293Z,93478.03
2019-01-23T07:40:27.615Z,93465.05
2019-01-23T07:42:55.138Z,93464.48
2019-01-23T07:45:22.612Z,93462.95
2019-01-23T07:47:49.974Z,93458.28
2019-01-23T07:50:20.579Z,93457.25
2019-01-23T07:52:48.194Z,93446.64
2019-01-23T07:55:18.175Z,93447.89
2019-01-23T07:57:45.554Z,93451.67
2019-01-23T08:00:17.699Z,93445.75
2019-01-23T08:02:45.419Z,93438.22
2019-01-23T08:05:19.404Z,93438.22
2019-01-23T08:07:44.175Z,93443.12
2019-01-23T08:10:13.460Z,93438.20
2019-01-23T08:12:40.995Z,93443.73
2019-01-23T08:15:17.142Z,93440.65
2019-01-23T08:17:44.519Z,93435.21
2019-01-23T08:20:14.321Z,93428.22
2019-01-23T08:22:41.714Z,93428.22
2019-01-23T08:25:09.375Z,93422.04
2019-01-23T08:27:39.477Z,93421.01
2019-01-23T08:30:07.027Z,93419.67
2019-01-23T08:32:34.524Z,93426.64
2019-01-23T08:35:01.918Z,93427.33
2019-01-23T08:37:29.329Z,93421.23
2019-01-23T08:39:56.694Z,93415.69
2019-01-23T08:42:24.016Z,93412.34
2019-01-23T08:44:51.422Z,93412.34
2019-01-23T08:47:18.820Z,93414.31
2019-01-23T08:49:46.179Z,93414.31
2019-01-23T08:52:13.587Z,93410.48
2019-01-23T08:54:40.935Z,93408.38
2019-01-23T08:57:08.300Z,93409.06
2019-01-23T08:59:35.680Z,93409.29
2019-01-23T09:02:04.098Z,93400.90
2019-01-23T09:04:31.483Z,93394.05
2019-01-23T09:06:58.849Z,93394.05
2019-01-23T09:09:26.238Z,93394.80
2019-01-23T09:11:53.665Z,93393.30
2019-01-23T09:14:21.047Z,93393.64
2019-01-23T09:16:48.444Z,93393.64
2019-01-23T09:19:15.893Z,93390.23
2019-01-23T09:21:43.243Z,93395.63
2019-01-23T09:24:10.685Z,93387.02
2019-01-23T09:26:38.070Z,93392.81
2019-01-23T09:29:05.441Z,93377.39
2019-01-23T09:32:09.514Z,93380.70
2019-01-23T09:35:13.335Z,93380.70
2019-01-23T09:38:22.326Z,93381.42
2019-01-23T09:41:15.433Z,93363.16
2019-01-23T09:44:09.868Z,93367.95
2019-01-23T09:47:15.948Z,93358.59
2019-01-23T09:50:23.497Z,93358.59
2019-01-23T09:53:25.036Z,93344.96
2019-01-23T09:55:52.853Z,93344.96
2019-01-23T09:58:20.228Z,93339.91
2019-01-23T10:00:47.696Z,93335.66
2019-01-23T10:03:15.068Z,93332.88
2019-01-23T10:05:42.474Z,93316.31
2019-01-23T10:08:09.845Z,93316.31
2019-01-23T10:10:37.242Z,93318.09
2019-01-23T10:13:04.743Z,93311.39
2019-01-23T10:15:46.882Z,93311.39
2019-01-23T10:18:14.253Z,93309.23
2019-01-23T10:20:41.684Z,93310.09
2019-01-23T10:23:09.092Z,93300.27
2019-01-23T10:25:36.421Z,93300.27
2019-01-23T10:28:03.798Z,93296.33
2019-01-23T10:30:31.233Z,93296.04
2019-01-23T10:32:58.590Z,93287.97
2019-01-23T10:35:26.024Z,93287.97
2019-01-23T10:37:53.438Z,93289.73
2019-01-23T10:40:20.809Z,93283.67
2019-01-23T10:42:48.280Z,93277.73
2019-01-23T10:45:15.777Z,93268.28
2019-01-23T10:47:43.691Z,93256.55
2019-01-23T10:50:12.007Z,93253.74
2019-01-23T10:52:39.354Z,93253.74
2019-01-23T10:55:06.911Z,93237.81
2019-01-23T10:57:34.299Z,93237.81
2019-01-23T11:00:01.925Z,93239.99
2019-01-23T11:02:29.329Z,93238.15
2019-01-23T11:04:56.713Z,93232.56
2019-01-23T11:07:24.086Z,93236.47
2019-01-23T11:09:51.490Z,93225.03
2019-01-23T11:12:18.885Z,93229.92
2019-01-23T11:14:46.313Z,93235.06
2019-01-23T11:17:13.700Z,93227.83
2019-01-23T11:19:41.119Z,93229.28
2019-01-23T11:22:08.529Z,93229.37
2019-01-23T11:24:36.744Z,93219.33
2019-01-23T11:27:04.235Z,93219.92
2019-01-23T11:29:31.674Z,93223.92
2019-01-23T11:31:59.094Z,93217.94
2019-01-23T11:34:26.519Z,93215.59
2019-01-23T11:36:53.954Z,93215.48
2019-01-23T11:39:21.392Z,93209.45
2019-01-23T11:41:48.793Z,93211.68
2019-01-23T11:44:16.154Z,93202.98
2019-01-23T11:46:43.569Z,93199.28
2019-01-23T11:49:11.013Z,93192.10
2019-01-23T11:51:38.461Z,93193.28
2019-01-23T11:54:05.906Z,93191.38
2019-01-23T11:56:33.419Z,93180.64
2019-01-23T11:59:00.937Z,93180.50
2019-01-23T12:01:28.560Z,93179.98
2019-01-23T12:03:55.944Z,93183.67
2019-01-23T12:06:23.320Z,93181.61
2019-01-23T12:08:50.904Z,93179.71
2019-01-23T12:11:18.481Z,93174.00
2019-01-23T12:13:45.997Z,93174.48
2019-01-23T12:16:13.604Z,93174.72
2019-01-23T12:18:41.074Z,93177.98
2019-01-23T12:21:08.473Z,93163.53
2019-01-23T12:23:35.830Z,93165.55
2019-01-23T12:26:03.993Z,93170.16
2019-01-23T12:28:31.334Z,93169.89
2019-01-23T12:30:58.852Z,93169.89
2019-01-23T12:33:26.300Z,93161.47
2019-01-23T12:35:54.262Z,93161.16
2019-01-23T12:38:22.005Z,93159.12
2019-01-23T12:40:49.533Z,93159.89
2019-01-23T12:43:17.018Z,93157.25
2019-01-23T12:45:44.461Z,93156.55
2019-01-23T12:48:11.840Z,93153.13
2019-01-23T12:50:39.382Z,93151.16
2019-01-23T12:53:06.774Z,93146.50
2019-01-23T12:55:34.196Z,93144.66
2019-01-23T12:58:02.800Z,93149.73
2019-01-23T13:00:30.597Z,93148.11
2019-01-23T13:02:58.540Z,93147.13
2019-01-23T13:05:26.640Z,93143.16
2019-01-23T13:07:54.101Z,93138.34
2019-01-23T13:10:21.678Z,93139.78
2019-01-23T13:12:50.504Z,93134.42
2019-01-23T13:15:20.195Z,93141.83
2019-01-23T13:17:47.566Z,93139.45
2019-01-23T13:20:15.777Z,93137.17
2019-01-23T13:22:43.308Z,93137.20
2019-01-23T13:25:13.723Z,93138.14
2019-01-23T13:27:41.202Z,93143.23
2019-01-23T13:30:10.964Z,93139.83
2019-01-23T13:32:38.524Z,93150.02
2019-01-23T13:35:07.713Z,93150.02
2019-01-23T13:37:35.098Z,93146.41
2019-01-23T13:40:03.825Z,93148.41
2019-01-23T13:42:31.978Z,93154.22
2019-01-23T13:44:59.394Z,93154.22
2019-01-23T13:47:26.877Z,93142.34
2019-01-23T13:49:54.313Z,93148.72
2019-01-23T13:52:22.073Z,93148.72
2019-01-23T13:54:49.502Z,93150.15
2019-01-23T13:57:17.051Z,93149.05
2019-01-23T13:59:44.473Z,93153.28
2019-01-23T14:02:12.693Z,93161.25
2019-01-23T14:04:40.216Z,93157.32
2019-01-23T14:07:07.673Z,93159.88
2019-01-23T14:09:35.160Z,93171.02
2019-01-23T14:12:02.558Z,93174.48
2019-01-23T14:14:29.964Z,93173.97
2019-01-23T14:16:57.435Z,93184.53
2019-01-23T14:19:24.853Z,93190.69
2019-01-23T14:21:52.238Z,93181.67
2019-01-23T14:24:19.727Z,93183.45
2019-01-23T14:26:47.139Z,93181.61
2019-01-23T14:29:14.569Z,93188.81
2019-01-23T14:31:42.064Z,93188.09
2019-01-23T14:34:09.481Z,93188.34
2019-01-23T14:36:36.941Z,93187.89
2019-01-23T14:39:07.058Z,93186.92
2019-01-23T14:41:34.454Z,93191.89
2019-01-23T14:44:01.829Z,93185.21
2019-01-23T14:46:29.213Z,93193.77
2019-01-23T14:48:56.638Z,93194.05
2019-01-23T14:51:24.043Z,93192.66
2019-01-23T14:53:51.461Z,93193.90
2019-01-23T14:56:18.867Z,93191.95
2019-01-23T14:58:46.315Z,93194.00
2019-01-23T15:01:13.812Z,93190.29
2019-01-23T15:03:41.234Z,93190.29
2019-01-23T15:06:09.364Z,93198.98
2019-01-23T15:08:36.816Z,93196.59
2019-01-23T15:11:04.320Z,93201.22
2019-01-23T15:13:31.760Z,93204.94
2019-01-23T15:15:59.156Z,93207.11
2019-01-23T15:18:26.581Z,93205.09
2019-01-23T15:20:54.055Z,93204.98
2019-01-23T15:23:21.620Z,93203.92
2019-01-23T15:25:49.119Z,93206.90
2019-01-23T15:28:16.504Z,93211.76
2019-01-23T15:30:44.290Z,93207.07
2019-01-23T15:33:11.792Z,93212.22
2019-01-23T15:35:39.259Z,93214.11
2019-01-23T15:38:06.713Z,93218.55
2019-01-23T15:40:36.240Z,93215.61
2019-01-23T15:43:03.733Z,93217.67
2019-01-23T15:45:31.279Z,93225.52
2019-01-23T15:47:58.664Z,93227.37
2019-01-23T15:50:26.361Z,93230.20
2019-01-23T15:52:53.857Z,93235.98
2019-01-23T15:55:22.861Z,93234.70
2019-01-23T15:57:50.377Z,93239.17
2019-01-23T16:00:26.045Z,93244.13
2019-01-23T16:02:53.446Z,93244.13
2019-01-23T16:05:20.899Z,93242.03
2019-01-23T16:07:48.470Z,93245.97
2019-01-23T16:10:18.209Z,93245.97
2019-01-23T16:12:45.660Z,93251.00
2019-01-23T16:15:14.044Z,93250.37
2019-01-23T16:17:41.716Z,93250.37
2019-01-23T16:20:09.934Z,93253.92
2019-01-23T16:22:37.522Z,93254.28
2019-01-23T16:25:05.998Z,93265.75
2019-01-23T16:27:33.517Z,93259.70
2019-01-23T16:30:01.180Z,93268.45
2019-01-23T16:32:31.630Z,93266.09
2019-01-23T16:34:58.475Z,93266.09
2019-01-23T16:37:25.940Z,93262.33
2019-01-23T16:39:53.493Z,93271.48
2019-01-23T16:42:21.007Z,93261.77
2019-01-23T16:44:50.469Z,93270.03
2019-01-23T16:47:17.996Z,93272.92
2019-01-23T16:49:45.550Z,93282.62
2019-01-23T16:52:13.052Z,93282.81
2019-01-23T16:54:40.590Z,93282.81
2019-01-23T16:57:08.251Z,93288.69
2019-01-23T16:59:35.779Z,93293.13
2019-01-23T17:02:03.459Z,93292.36
2019-01-23T17:04:30.980Z,93305.61
2019-01-23T17:06:58.585Z,93305.61
2019-01-23T17:09:26.314Z,93303.70
2019-01-23T17:11:53.882Z,93304.56
2019-01-23T17:14:21.578Z,93304.56
2019-01-23T17:16:49.315Z,93314.30
2019-01-23T17:19:16.802Z,93311.65
2019-01-23T17:21:44.406Z,93306.58
2019-01-23T17:24:11.919Z,93323.55
2019-01-23T17:26:39.571Z,93335.91
2019-01-23T17:29:07.152Z,93340.56
2019-01-23T17:31:34.717Z,93345.08
2019-01-23T17:34:02.208Z,93345.08
2019-01-23T17:36:29.937Z,93348.22
2019-01-23T17:38:57.473Z,93355.37
2019-01-23T17:41:25.018Z,93352.95
2019-01-23T17:43:53.071Z,93352.52
2019-01-23T17:46:20.775Z,93362.66
2019-01-23T17:48:48.838Z,93341.89
2019-01-23T17:51:17.228Z,93363.31
2019-01-23T17:53:45.009Z,93366.55
2019-01-23T17:56:13.020Z,93361.72
2019-01-23T17:58:40.811Z,93359.72
2019-01-23T18:01:10.686Z,93409.88
2019-01-23T18:03:38.592Z,93371.91
2019-01-23T18:06:06.657Z,93371.77
2019-01-23T18:08:34.699Z,93369.77
2019-01-23T18:11:02.624Z,93367.91
2019-01-23T18:13:30.532Z,93367.91
2019-01-23T18:16:03.857Z,93377.58
2019-01-23T18:18:31.557Z,93383.38
2019-01-23T18:20:59.656Z,93383.38
2019-01-23T18:23:27.488Z,93389.70
2019-01-23T18:25:55.209Z,93385.67
2019-01-23T18:28:23.137Z,93385.91
2019-01-23T18:31:06.024Z,93385.91
2019-01-23T18:33:53.184Z,93385.77
2019-01-23T18:37:05.436Z,93396.28
2019-01-23T18:40:07.459Z,93396.28
2019-01-23T18:43:15.189Z,93400.48
2019-01-23T18:46:28.966Z,93409.59
2019-01-23T18:49:42.665Z,93408.73
2019-01-23T18:52:12.173Z,93403.69
2019-01-23T18:54:43.056Z,93403.69
2019-01-23T18:57:17.011Z,93413.86
2019-01-23T18:59:45.457Z,93413.86
2019-01-23T19:02:13.442Z,93423.13
2019-01-23T19:04:41.433Z,93418.63
2019-01-23T19:07:09.754Z,93418.63
2019-01-23T19:09:38.202Z,93415.13
2019-01-23T19:12:06.395Z,93415.13
2019-01-23T19:14:34.507Z,93418.72
2019-01-23T19:17:02.596Z,93427.61
2019-01-23T19:19:33.539Z,93427.88
2019-01-23T19:22:01.565Z,93439.82
2019-01-23T19:24:29.587Z,93441.78
2019-01-23T19:26:57.603Z,93441.78
2019-01-23T19:29:25.649Z,93441.88
2019-01-23T19:31:53.615Z,93441.92
2019-01-23T19:34:22.104Z,93444.38
2019-01-23T19:36:50.141Z,93445.04
2019-01-23T19:39:18.171Z,93446.77
2019-01-23T19:41:46.201Z,93452.54
2019-01-23T19:44:14.256Z,93452.54
2019-01-23T19:46:42.657Z,93462.11
2019-01-23T19:49:10.664Z,93465.42
2019-01-23T19:51:38.744Z,93463.45
2019-01-23T19:54:06.776Z,93475.57
2019-01-23T19:56:34.966Z,93472.93
2019-01-23T19:59:03.217Z,93470.62
2019-01-23T20:01:31.309Z,93478.33
2019-01-23T20:04:00.548Z,93470.45
2019-01-23T20:06:28.491Z,93470.75
2019-01-23T20:08:56.473Z,93474.90
2019-01-23T20:11:24.888Z,93478.50
2019-01-23T20:13:52.952Z,93480.98
2019-01-23T20:16:21.018Z,93478.66
2019-01-23T20:18:49.016Z,93489.84
2019-01-23T20:21:17.078Z,93479.93
2019-01-23T20:23:45.417Z,93492.62
2019-01-23T20:26:13.507Z,93496.76
2019-01-23T20:28:41.629Z,93500.50
2019-01-23T20:31:09.535Z,93510.43
2019-01-23T20:33:37.574Z,93510.53
2019-01-23T20:36:05.627Z,93515.19
2019-01-23T20:38:34.352Z,93521.30
2019-01-23T20:41:02.375Z,93531.88
2019-01-23T20:43:30.333Z,93526.16
2019-01-23T20:45:58.751Z,93523.69
2019-01-23T20:48:26.771Z,93529.82
2019-01-23T20:50:54.700Z,93531.80
2019-01-23T20:53:22.649Z,93534.89
2019-01-23T20:55:50.551Z,93544.47
2019-01-23T20:58:18.423Z,93550.05
2019-01-23T21:00:46.446Z,93550.05
2019-01-23T21:03:14.406Z,93551.95
2019-01-23T21:05:42.349Z,93552.95
2019-01-23T21:08:10.398Z,93557.08
2019-01-23T21:10:38.155Z,93557.08
2019-01-23T21:13:05.940Z,93563.20
2019-01-23T21:15:34.093Z,93563.13
2019-01-23T21:18:03.438Z,93563.84
2019-01-23T21:20:37.023Z,93563.84
2019-01-23T21:23:05.668Z,93567.09
2019-01-23T21:25:33.548Z,93568.33
2019-01-23T21:28:01.407Z,93569.27
2019-01-23T21:30:29.395Z,93567.22
2019-01-23T21:32:57.076Z,93569.73
2019-01-23T21:35:25.065Z,93572.61
2019-01-23T21:37:52.977Z,93574.96
2019-01-23T21:40:23.318Z,93578.56
2019-01-23T21:42:51.013Z,93585.47
2019-01-23T21:45:18.939Z,93587.73
2019-01-23T21:47:47.437Z,93577.82
2019-01-23T21:50:17.118Z,93585.78
2019-01-23T21:52:51.845Z,93585.78
2019-01-23T21:55:21.742Z,93586.35
2019-01-23T21:57:49.453Z,93602.78
2019-01-23T22:00:28.752Z,93603.86
2019-01-23T22:02:57.797Z,93608.71
2019-01-23T22:05:25.177Z,93615.47
2019-01-23T22:07:52.782Z,93614.98
2019-01-23T22:10:20.202Z,93620.02
2019-01-23T22:12:47.737Z,93630.34
2019-01-23T22:15:16.815Z,93630.34
2019-01-23T22:17:44.176Z,93637.55
2019-01-23T22:20:14.089Z,93630.94
2019-01-23T22:22:41.464Z,93634.70
2019-01-23T22:25:10.131Z,93642.66
2019-01-23T22:27:37.591Z,93646.71
2019-01-23T22:30:08.124Z,93647.10
2019-01-23T22:32:35.577Z,93649.52
2019-01-23T22:35:04.114Z,93656.22
2019-01-23T22:37:31.509Z,93652.69
2019-01-23T22:39:58.906Z,93657.66
2019-01-23T22:42:26.311Z,93665.63
2019-01-23T22:44:53.705Z,93665.77
2019-01-23T22:47:21.040Z,93661.02
2019-01-23T22:49:49.715Z,93660.09
2019-01-23T22:52:17.728Z,93677.39
2019-01-23T22:54:45.107Z,93688.88
2019-01-23T22:57:13.146Z,93688.88
2019-01-23T22:59:40.513Z,93686.19
2019-01-23T23:02:07.908Z,93690.23
2019-01-23T23:04:35.328Z,93692.28
2019-01-23T23:07:02.787Z,93698.34
2019-01-23T23:09:30.698Z,93707.31
2019-01-23T23:11:58.064Z,93707.34
2019-01-23T23:14:25.442Z,93704.30
2019-01-23T23:16:52.878Z,93713.02
2019-01-23T23:19:20.279Z,93706.20
2019-01-23T23:21:47.667Z,93707.02
2019-01-23T23:24:15.092Z,93701.02
2019-01-23T23:26:42.490Z,93706.73
2019-01-23T23:29:09.887Z,93716.62
2019-01-23T23:31:37.293Z,93718.97
2019-01-23T23:34:09.944Z,93719.14
2019-01-23T23:36:34.200Z,93732.26
2019-01-23T23:39:01.570Z,93734.27
2019-01-23T23:41:28.974Z,93740.18
2019-01-23T23:43:56.389Z,93736.72
2019-01-23T23:46:23.752Z,93742.59
2019-01-23T23:48:51.135Z,93746.27
2019-01-23T23:51:18.537Z,93744.81
2019-01-23T23:53:45.929Z,93746.56
2019-01-23T23:56:13.409Z,93764.13
2019-01-23T23:58:40.776Z,93760.38
